Vernon, New York
Current Conditions -  °F | °C
As of 7:38 AM on Monday 24 Nov 2014 (Local Time) from KRME Reporting Station
Overcast Overcast  
Wind Chill: 50°   Ceiling: 3000
Heat Index: 50°   Visibility: 10mi
Dew Point: 48°   Wind: 13mph
Humidity: 93%   Direction: 120°ESE
Pressure: 29.51"   Gusts: NA
Location:  43.08°N, 75.54°W
Report Text: KRME 241238Z 12011KT 10SM BKN030 OVC070 10/09 A2951 RMK AO2 T01000089
Loading
Personal Weather Stations






























Interactive Weather Map New forecast layout! Learn more

10-Day Weather Forecast

Advertisements
Track Severe Weather on mobile